sensor_id;sensor_type;location;lat;lon;timestamp;P1;durP1;ratioP1;P2;durP2;ratioP2
41631;SDS011;37452;51.938;4.624;2023-06-14T00:00:37;5.93;;;2.25;;
41631;SDS011;37452;51.938;4.624;2023-06-14T00:03:06;6.60;;;2.08;;
41631;SDS011;37452;51.938;4.624;2023-06-14T00:05:33;4.35;;;1.73;;
41631;SDS011;37452;51.938;4.624;2023-06-14T00:08:03;4.93;;;1.83;;
41631;SDS011;37452;51.938;4.624;2023-06-14T00:10:32;5.32;;;2.03;;
41631;SDS011;37452;51.938;4.624;2023-06-14T00:13:00;4.30;;;2.40;;
41631;SDS011;37452;51.938;4.624;2023-06-14T00:15:26;2.85;;;1.90;;
41631;SDS011;37452;51.938;4.624;2023-06-14T00:17:51;6.95;;;1.95;;
41631;SDS011;37452;51.938;4.624;2023-06-14T00:20:16;3.35;;;1.92;;
41631;SDS011;37452;51.938;4.624;2023-06-14T00:22:42;4.47;;;2.40;;
41631;SDS011;37452;51.938;4.624;2023-06-14T00:25:07;5.32;;;2.65;;
41631;SDS011;37452;51.938;4.624;2023-06-14T00:27:33;6.95;;;2.30;;
41631;SDS011;37452;51.938;4.624;2023-06-14T00:29:58;4.53;;;2.20;;
41631;SDS011;37452;51.938;4.624;2023-06-14T00:32:23;5.30;;;2.42;;
41631;SDS011;37452;51.938;4.624;2023-06-14T00:34:50;5.07;;;2.55;;
41631;SDS011;37452;51.938;4.624;2023-06-14T00:37:16;6.88;;;2.25;;
41631;SDS011;37452;51.938;4.624;2023-06-14T00:39:41;5.45;;;2.33;;
41631;SDS011;37452;51.938;4.624;2023-06-14T00:42:06;4.00;;;2.30;;
41631;SDS011;37452;51.938;4.624;2023-06-14T00:44:32;9.80;;;2.38;;
41631;SDS011;37452;51.938;4.624;2023-06-14T00:46:57;6.40;;;2.75;;
41631;SDS011;37452;51.938;4.624;2023-06-14T00:49:22;4.18;;;2.35;;
41631;SDS011;37452;51.938;4.624;2023-06-14T00:51:49;5.40;;;2.58;;
41631;SDS011;37452;51.938;4.624;2023-06-14T00:54:15;4.63;;;2.10;;
41631;SDS011;37452;51.938;4.624;2023-06-14T00:56:40;6.78;;;2.30;;
41631;SDS011;37452;51.938;4.624;2023-06-14T00:59:08;4.50;;;2.25;;
41631;SDS011;37452;51.938;4.624;2023-06-14T01:01:36;3.78;;;2.00;;
41631;SDS011;37452;51.938;4.624;2023-06-14T01:04:01;3.70;;;2.30;;
41631;SDS011;37452;51.938;4.624;2023-06-14T01:06:32;5.32;;;2.05;;
41631;SDS011;37452;51.938;4.624;2023-06-14T01:09:23;3.95;;;2.45;;
41631;SDS011;37452;51.938;4.624;2023-06-14T01:12:03;4.05;;;2.42;;
41631;SDS011;37452;51.938;4.624;2023-06-14T01:14:35;5.20;;;2.17;;
41631;SDS011;37452;51.938;4.624;2023-06-14T01:17:02;6.90;;;2.35;;
41631;SDS011;37452;51.938;4.624;2023-06-14T01:19:29;8.32;;;2.60;;
41631;SDS011;37452;51.938;4.624;2023-06-14T01:21:56;4.68;;;2.50;;
41631;SDS011;37452;51.938;4.624;2023-06-14T01:24:22;5.50;;;2.72;;
41631;SDS011;37452;51.938;4.624;2023-06-14T01:26:51;5.07;;;2.63;;
41631;SDS011;37452;51.938;4.624;2023-06-14T01:29:21;5.80;;;2.88;;
41631;SDS011;37452;51.938;4.624;2023-06-14T01:31:48;10.52;;;2.50;;
41631;SDS011;37452;51.938;4.624;2023-06-14T01:34:15;8.00;;;2.90;;
41631;SDS011;37452;51.938;4.624;2023-06-14T01:36:40;6.45;;;2.38;;
41631;SDS011;37452;51.938;4.624;2023-06-14T01:39:08;6.90;;;2.67;;
41631;SDS011;37452;51.938;4.624;2023-06-14T01:41:34;5.18;;;2.80;;
41631;SDS011;37452;51.938;4.624;2023-06-14T01:44:00;5.75;;;3.05;;
41631;SDS011;37452;51.938;4.624;2023-06-14T01:46:26;6.80;;;3.10;;
41631;SDS011;37452;51.938;4.624;2023-06-14T01:48:52;6.00;;;2.50;;
41631;SDS011;37452;51.938;4.624;2023-06-14T01:51:17;4.88;;;2.60;;
41631;SDS011;37452;51.938;4.624;2023-06-14T01:53:42;5.55;;;2.40;;
41631;SDS011;37452;51.938;4.624;2023-06-14T01:56:08;6.65;;;2.65;;
41631;SDS011;37452;51.938;4.624;2023-06-14T01:58:33;5.38;;;2.80;;
41631;SDS011;37452;51.938;4.624;2023-06-14T02:00:58;6.13;;;3.30;;
41631;SDS011;37452;51.938;4.624;2023-06-14T02:03:25;5.32;;;2.63;;
41631;SDS011;37452;51.938;4.624;2023-06-14T02:05:51;4.53;;;2.45;;
41631;SDS011;37452;51.938;4.624;2023-06-14T02:08:17;6.78;;;2.80;;
41631;SDS011;37452;51.938;4.624;2023-06-14T02:10:42;4.13;;;2.67;;
41631;SDS011;37452;51.938;4.624;2023-06-14T02:13:07;4.75;;;2.95;;
41631;SDS011;37452;51.938;4.624;2023-06-14T02:15:32;6.53;;;2.88;;
41631;SDS011;37452;51.938;4.624;2023-06-14T02:18:01;7.57;;;2.85;;
41631;SDS011;37452;51.938;4.624;2023-06-14T02:20:28;7.22;;;3.20;;
41631;SDS011;37452;51.938;4.624;2023-06-14T02:22:54;5.05;;;2.47;;
41631;SDS011;37452;51.938;4.624;2023-06-14T02:25:19;5.03;;;2.70;;
41631;SDS011;37452;51.938;4.624;2023-06-14T02:27:44;8.80;;;2.55;;
41631;SDS011;37452;51.938;4.624;2023-06-14T02:30:10;4.50;;;2.40;;
41631;SDS011;37452;51.938;4.624;2023-06-14T02:32:36;6.00;;;2.40;;
41631;SDS011;37452;51.938;4.624;2023-06-14T02:35:01;5.15;;;2.65;;
41631;SDS011;37452;51.938;4.624;2023-06-14T02:37:27;6.35;;;3.03;;
41631;SDS011;37452;51.938;4.624;2023-06-14T02:39:53;5.38;;;2.72;;
41631;SDS011;37452;51.938;4.624;2023-06-14T02:42:18;6.85;;;2.70;;
41631;SDS011;37452;51.938;4.624;2023-06-14T02:44:43;7.30;;;3.33;;
41631;SDS011;37452;51.938;4.624;2023-06-14T02:47:10;5.65;;;2.38;;
41631;SDS011;37452;51.938;4.624;2023-06-14T02:49:35;9.20;;;3.03;;
41631;SDS011;37452;51.938;4.624;2023-06-14T02:52:00;7.55;;;2.80;;
41631;SDS011;37452;51.938;4.624;2023-06-14T02:54:26;3.90;;;2.70;;
41631;SDS011;37452;51.938;4.624;2023-06-14T02:56:51;7.03;;;3.13;;
41631;SDS011;37452;51.938;4.624;2023-06-14T02:59:17;10.40;;;3.30;;
41631;SDS011;37452;51.938;4.624;2023-06-14T03:01:44;4.90;;;2.53;;
41631;SDS011;37452;51.938;4.624;2023-06-14T03:04:09;3.90;;;2.50;;
41631;SDS011;37452;51.938;4.624;2023-06-14T03:06:35;7.20;;;2.72;;
41631;SDS011;37452;51.938;4.624;2023-06-14T03:09:01;4.95;;;2.70;;
41631;SDS011;37452;51.938;4.624;2023-06-14T03:11:30;6.82;;;3.17;;
41631;SDS011;37452;51.938;4.624;2023-06-14T03:13:56;5.15;;;2.78;;
41631;SDS011;37452;51.938;4.624;2023-06-14T03:16:22;6.65;;;2.97;;
41631;SDS011;37452;51.938;4.624;2023-06-14T03:18:49;8.10;;;3.25;;
41631;SDS011;37452;51.938;4.624;2023-06-14T03:21:16;4.72;;;2.65;;
41631;SDS011;37452;51.938;4.624;2023-06-14T03:23:42;7.45;;;2.72;;
41631;SDS011;37452;51.938;4.624;2023-06-14T03:26:07;4.47;;;2.58;;
41631;SDS011;37452;51.938;4.624;2023-06-14T03:28:33;6.20;;;2.75;;
41631;SDS011;37452;51.938;4.624;2023-06-14T03:30:59;7.03;;;2.85;;
41631;SDS011;37452;51.938;4.624;2023-06-14T03:33:24;4.10;;;2.25;;
41631;SDS011;37452;51.938;4.624;2023-06-14T03:35:50;5.45;;;2.75;;
41631;SDS011;37452;51.938;4.624;2023-06-14T03:38:16;6.13;;;3.00;;
41631;SDS011;37452;51.938;4.624;2023-06-14T03:40:41;6.57;;;2.20;;
41631;SDS011;37452;51.938;4.624;2023-06-14T03:43:06;6.63;;;2.63;;
41631;SDS011;37452;51.938;4.624;2023-06-14T03:45:32;5.68;;;2.88;;
41631;SDS011;37452;51.938;4.624;2023-06-14T03:47:57;4.55;;;2.28;;
41631;SDS011;37452;51.938;4.624;2023-06-14T03:50:23;5.38;;;2.30;;
41631;SDS011;37452;51.938;4.624;2023-06-14T03:52:48;6.03;;;2.45;;
41631;SDS011;37452;51.938;4.624;2023-06-14T03:55:15;6.65;;;2.30;;
41631;SDS011;37452;51.938;4.624;2023-06-14T03:57:41;5.38;;;2.55;;
41631;SDS011;37452;51.938;4.624;2023-06-14T04:00:07;3.88;;;2.25;;
41631;SDS011;37452;51.938;4.624;2023-06-14T04:02:34;5.07;;;2.70;;
41631;SDS011;37452;51.938;4.624;2023-06-14T04:05:01;4.05;;;2.35;;
41631;SDS011;37452;51.938;4.624;2023-06-14T04:07:27;6.78;;;2.38;;
41631;SDS011;37452;51.938;4.624;2023-06-14T04:09:53;4.68;;;2.03;;
41631;SDS011;37452;51.938;4.624;2023-06-14T04:12:18;6.07;;;2.30;;
41631;SDS011;37452;51.938;4.624;2023-06-14T04:14:44;6.55;;;2.50;;
41631;SDS011;37452;51.938;4.624;2023-06-14T04:17:09;6.63;;;2.40;;
41631;SDS011;37452;51.938;4.624;2023-06-14T04:19:34;5.22;;;2.45;;
41631;SDS011;37452;51.938;4.624;2023-06-14T04:22:00;4.32;;;2.30;;
41631;SDS011;37452;51.938;4.624;2023-06-14T04:24:27;7.03;;;2.28;;
41631;SDS011;37452;51.938;4.624;2023-06-14T04:26:57;6.72;;;2.97;;
41631;SDS011;37452;51.938;4.624;2023-06-14T04:29:24;5.50;;;2.42;;
41631;SDS011;37452;51.938;4.624;2023-06-14T04:31:51;3.42;;;2.20;;
41631;SDS011;37452;51.938;4.624;2023-06-14T04:34:18;3.67;;;1.92;;
41631;SDS011;37452;51.938;4.624;2023-06-14T04:36:44;7.28;;;2.60;;
41631;SDS011;37452;51.938;4.624;2023-06-14T04:39:14;4.53;;;2.33;;
41631;SDS011;37452;51.938;4.624;2023-06-14T04:41:40;7.18;;;2.20;;
41631;SDS011;37452;51.938;4.624;2023-06-14T04:44:06;4.05;;;2.60;;
41631;SDS011;37452;51.938;4.624;2023-06-14T04:46:32;4.38;;;2.47;;
41631;SDS011;37452;51.938;4.624;2023-06-14T04:48:57;6.65;;;2.55;;
41631;SDS011;37452;51.938;4.624;2023-06-14T04:51:27;6.88;;;2.58;;
41631;SDS011;37452;51.938;4.624;2023-06-14T04:53:57;3.58;;;2.38;;
41631;SDS011;37452;51.938;4.624;2023-06-14T04:56:23;6.50;;;2.30;;
41631;SDS011;37452;51.938;4.624;2023-06-14T04:58:50;5.68;;;2.40;;
41631;SDS011;37452;51.938;4.624;2023-06-14T05:01:15;6.53;;;2.17;;
41631;SDS011;37452;51.938;4.624;2023-06-14T05:03:40;4.88;;;2.00;;
41631;SDS011;37452;51.938;4.624;2023-06-14T05:06:06;7.13;;;2.45;;
41631;SDS011;37452;51.938;4.624;2023-06-14T05:08:31;3.72;;;2.03;;
41631;SDS011;37452;51.938;4.624;2023-06-14T05:10:57;5.97;;;2.80;;
41631;SDS011;37452;51.938;4.624;2023-06-14T05:13:22;6.05;;;2.22;;
41631;SDS011;37452;51.938;4.624;2023-06-14T05:15:48;5.25;;;2.33;;
41631;SDS011;37452;51.938;4.624;2023-06-14T05:18:14;3.63;;;2.15;;
41631;SDS011;37452;51.938;4.624;2023-06-14T05:20:40;6.57;;;2.30;;
41631;SDS011;37452;51.938;4.624;2023-06-14T05:23:07;6.93;;;2.15;;
41631;SDS011;37452;51.938;4.624;2023-06-14T05:25:32;5.18;;;2.15;;
41631;SDS011;37452;51.938;4.624;2023-06-14T05:27:58;3.60;;;2.20;;
41631;SDS011;37452;51.938;4.624;2023-06-14T05:30:23;4.18;;;2.10;;
41631;SDS011;37452;51.938;4.624;2023-06-14T05:32:48;4.38;;;1.85;;
41631;SDS011;37452;51.938;4.624;2023-06-14T05:35:13;6.75;;;2.40;;
41631;SDS011;37452;51.938;4.624;2023-06-14T05:37:39;6.20;;;1.90;;
41631;SDS011;37452;51.938;4.624;2023-06-14T05:40:05;3.60;;;1.85;;
41631;SDS011;37452;51.938;4.624;2023-06-14T05:42:32;3.95;;;2.17;;
41631;SDS011;37452;51.938;4.624;2023-06-14T05:44:58;6.22;;;2.45;;
41631;SDS011;37452;51.938;4.624;2023-06-14T05:47:23;6.53;;;2.30;;
41631;SDS011;37452;51.938;4.624;2023-06-14T05:49:48;9.38;;;2.50;;
41631;SDS011;37452;51.938;4.624;2023-06-14T05:52:14;4.70;;;2.05;;
41631;SDS011;37452;51.938;4.624;2023-06-14T05:54:39;3.67;;;2.05;;
41631;SDS011;37452;51.938;4.624;2023-06-14T05:57:06;6.65;;;2.13;;
41631;SDS011;37452;51.938;4.624;2023-06-14T05:59:31;9.07;;;2.25;;
41631;SDS011;37452;51.938;4.624;2023-06-14T06:01:57;7.05;;;2.90;;
41631;SDS011;37452;51.938;4.624;2023-06-14T06:04:22;6.00;;;2.28;;
41631;SDS011;37452;51.938;4.624;2023-06-14T06:06:48;3.20;;;1.92;;
41631;SDS011;37452;51.938;4.624;2023-06-14T06:09:13;4.25;;;2.47;;
41631;SDS011;37452;51.938;4.624;2023-06-14T06:11:39;7.43;;;2.85;;
41631;SDS011;37452;51.938;4.624;2023-06-14T06:14:05;4.93;;;2.35;;
41631;SDS011;37452;51.938;4.624;2023-06-14T06:16:31;6.45;;;2.42;;
41631;SDS011;37452;51.938;4.624;2023-06-14T06:18:56;6.18;;;2.10;;
41631;SDS011;37452;51.938;4.624;2023-06-14T06:21:21;5.57;;;2.35;;
41631;SDS011;37452;51.938;4.624;2023-06-14T06:23:47;5.03;;;2.45;;
41631;SDS011;37452;51.938;4.624;2023-06-14T06:26:12;6.63;;;2.05;;
41631;SDS011;37452;51.938;4.624;2023-06-14T06:28:38;5.30;;;2.28;;
41631;SDS011;37452;51.938;4.624;2023-06-14T06:31:03;5.00;;;2.40;;
41631;SDS011;37452;51.938;4.624;2023-06-14T06:33:28;4.95;;;2.03;;
41631;SDS011;37452;51.938;4.624;2023-06-14T06:35:54;6.00;;;2.63;;
41631;SDS011;37452;51.938;4.624;2023-06-14T06:38:19;3.65;;;1.90;;
41631;SDS011;37452;51.938;4.624;2023-06-14T06:40:45;7.97;;;3.03;;
41631;SDS011;37452;51.938;4.624;2023-06-14T06:43:10;7.13;;;2.58;;
41631;SDS011;37452;51.938;4.624;2023-06-14T06:45:38;6.03;;;2.47;;
41631;SDS011;37452;51.938;4.624;2023-06-14T06:48:04;8.20;;;2.35;;
41631;SDS011;37452;51.938;4.624;2023-06-14T06:50:30;5.72;;;2.20;;
41631;SDS011;37452;51.938;4.624;2023-06-14T06:52:55;9.75;;;2.80;;
41631;SDS011;37452;51.938;4.624;2023-06-14T06:55:20;6.10;;;1.98;;
41631;SDS011;37452;51.938;4.624;2023-06-14T06:57:46;4.47;;;2.30;;
41631;SDS011;37452;51.938;4.624;2023-06-14T07:00:11;3.85;;;2.05;;
41631;SDS011;37452;51.938;4.624;2023-06-14T07:02:37;4.60;;;2.25;;
41631;SDS011;37452;51.938;4.624;2023-06-14T07:05:03;7.18;;;2.50;;
41631;SDS011;37452;51.938;4.624;2023-06-14T07:07:29;4.25;;;2.40;;
41631;SDS011;37452;51.938;4.624;2023-06-14T07:09:54;3.53;;;2.13;;
41631;SDS011;37452;51.938;4.624;2023-06-14T07:12:22;6.90;;;2.45;;
41631;SDS011;37452;51.938;4.624;2023-06-14T07:14:48;8.10;;;2.60;;
41631;SDS011;37452;51.938;4.624;2023-06-14T07:17:13;4.40;;;2.38;;
41631;SDS011;37452;51.938;4.624;2023-06-14T07:19:38;6.22;;;1.98;;
41631;SDS011;37452;51.938;4.624;2023-06-14T07:22:03;5.82;;;2.60;;
41631;SDS011;37452;51.938;4.624;2023-06-14T07:24:29;6.38;;;2.25;;
41631;SDS011;37452;51.938;4.624;2023-06-14T07:26:54;4.03;;;1.98;;
41631;SDS011;37452;51.938;4.624;2023-06-14T07:29:20;7.97;;;3.33;;
41631;SDS011;37452;51.938;4.624;2023-06-14T07:31:46;4.00;;;2.60;;
41631;SDS011;37452;51.938;4.624;2023-06-14T07:34:11;7.38;;;2.95;;
41631;SDS011;37452;51.938;4.624;2023-06-14T07:36:36;7.43;;;2.63;;
41631;SDS011;37452;51.938;4.624;2023-06-14T07:39:03;5.28;;;2.55;;
41631;SDS011;37452;51.938;4.624;2023-06-14T07:41:28;5.82;;;2.72;;
41631;SDS011;37452;51.938;4.624;2023-06-14T07:43:54;6.88;;;2.38;;
41631;SDS011;37452;51.938;4.624;2023-06-14T07:46:20;5.80;;;2.45;;
41631;SDS011;37452;51.938;4.624;2023-06-14T07:48:45;4.93;;;2.83;;
41631;SDS011;37452;51.938;4.624;2023-06-14T07:51:11;4.80;;;2.45;;
41631;SDS011;37452;51.938;4.624;2023-06-14T07:53:36;4.78;;;2.35;;
41631;SDS011;37452;51.938;4.624;2023-06-14T07:56:01;4.10;;;2.35;;
41631;SDS011;37452;51.938;4.624;2023-06-14T07:58:27;6.53;;;2.40;;
41631;SDS011;37452;51.938;4.624;2023-06-14T08:00:53;5.82;;;2.25;;
41631;SDS011;37452;51.938;4.624;2023-06-14T08:03:18;5.57;;;2.40;;
41631;SDS011;37452;51.938;4.624;2023-06-14T08:05:44;6.07;;;2.33;;
41631;SDS011;37452;51.938;4.624;2023-06-14T08:08:09;6.97;;;2.80;;
41631;SDS011;37452;51.938;4.624;2023-06-14T08:10:35;7.20;;;2.20;;
41631;SDS011;37452;51.938;4.624;2023-06-14T08:13:00;6.38;;;2.53;;
41631;SDS011;37452;51.938;4.624;2023-06-14T08:15:25;6.80;;;2.20;;
41631;SDS011;37452;51.938;4.624;2023-06-14T08:17:52;10.10;;;2.22;;
41631;SDS011;37452;51.938;4.624;2023-06-14T08:20:17;3.78;;;2.25;;
41631;SDS011;37452;51.938;4.624;2023-06-14T08:22:42;5.25;;;2.13;;
41631;SDS011;37452;51.938;4.624;2023-06-14T08:25:08;7.18;;;2.15;;
41631;SDS011;37452;51.938;4.624;2023-06-14T08:27:34;5.25;;;2.33;;
41631;SDS011;37452;51.938;4.624;2023-06-14T08:30:00;6.72;;;2.40;;
41631;SDS011;37452;51.938;4.624;2023-06-14T08:32:27;3.08;;;2.17;;
41631;SDS011;37452;51.938;4.624;2023-06-14T08:34:52;6.20;;;2.40;;
41631;SDS011;37452;51.938;4.624;2023-06-14T08:37:17;7.28;;;2.67;;
41631;SDS011;37452;51.938;4.624;2023-06-14T08:39:43;3.53;;;2.22;;
41631;SDS011;37452;51.938;4.624;2023-06-14T08:42:09;7.63;;;2.20;;
41631;SDS011;37452;51.938;4.624;2023-06-14T08:44:35;5.78;;;2.22;;
41631;SDS011;37452;51.938;4.624;2023-06-14T08:47:01;5.15;;;2.03;;
41631;SDS011;37452;51.938;4.624;2023-06-14T08:49:28;6.53;;;2.30;;
41631;SDS011;37452;51.938;4.624;2023-06-14T08:51:59;4.32;;;2.42;;
41631;SDS011;37452;51.938;4.624;2023-06-14T08:54:27;4.03;;;2.17;;
41631;SDS011;37452;51.938;4.624;2023-06-14T08:56:55;4.63;;;1.98;;
41631;SDS011;37452;51.938;4.624;2023-06-14T08:59:24;4.55;;;2.17;;
41631;SDS011;37452;51.938;4.624;2023-06-14T09:01:51;5.50;;;2.35;;
41631;SDS011;37452;51.938;4.624;2023-06-14T09:04:17;4.00;;;2.10;;
41631;SDS011;37452;51.938;4.624;2023-06-14T09:06:44;5.55;;;2.35;;
41631;SDS011;37452;51.938;4.624;2023-06-14T09:09:10;3.42;;;2.05;;
41631;SDS011;37452;51.938;4.624;2023-06-14T09:11:36;3.92;;;2.00;;
41631;SDS011;37452;51.938;4.624;2023-06-14T09:14:01;5.82;;;2.30;;
41631;SDS011;37452;51.938;4.624;2023-06-14T09:16:27;3.28;;;2.03;;
41631;SDS011;37452;51.938;4.624;2023-06-14T09:18:53;4.72;;;2.03;;
41631;SDS011;37452;51.938;4.624;2023-06-14T09:21:18;6.03;;;2.20;;
41631;SDS011;37452;51.938;4.624;2023-06-14T09:23:46;5.97;;;2.38;;
41631;SDS011;37452;51.938;4.624;2023-06-14T09:26:14;4.85;;;1.77;;
41631;SDS011;37452;51.938;4.624;2023-06-14T09:28:47;5.32;;;2.25;;
41631;SDS011;37452;51.938;4.624;2023-06-14T09:31:14;5.18;;;2.08;;
41631;SDS011;37452;51.938;4.624;2023-06-14T09:33:44;3.65;;;1.70;;
41631;SDS011;37452;51.938;4.624;2023-06-14T09:36:15;3.90;;;1.95;;
41631;SDS011;37452;51.938;4.624;2023-06-14T09:38:56;3.83;;;1.92;;
41631;SDS011;37452;51.938;4.624;2023-06-14T09:41:33;5.38;;;1.65;;
41631;SDS011;37452;51.938;4.624;2023-06-14T09:43:59;3.50;;;1.58;;
41631;SDS011;37452;51.938;4.624;2023-06-14T09:46:26;3.47;;;1.70;;
41631;SDS011;37452;51.938;4.624;2023-06-14T09:48:53;3.72;;;1.60;;
41631;SDS011;37452;51.938;4.624;2023-06-14T09:51:18;2.75;;;1.50;;
41631;SDS011;37452;51.938;4.624;2023-06-14T09:53:46;4.57;;;1.90;;
41631;SDS011;37452;51.938;4.624;2023-06-14T09:56:20;3.30;;;1.80;;
41631;SDS011;37452;51.938;4.624;2023-06-14T09:58:53;3.35;;;1.90;;
41631;SDS011;37452;51.938;4.624;2023-06-14T10:01:20;2.90;;;1.42;;
41631;SDS011;37452;51.938;4.624;2023-06-14T10:03:47;6.80;;;2.00;;
41631;SDS011;37452;51.938;4.624;2023-06-14T10:06:15;2.13;;;1.40;;
41631;SDS011;37452;51.938;4.624;2023-06-14T10:08:42;3.78;;;1.40;;
41631;SDS011;37452;51.938;4.624;2023-06-14T10:11:08;3.08;;;1.50;;
41631;SDS011;37452;51.938;4.624;2023-06-14T10:13:34;3.90;;;1.42;;
41631;SDS011;37452;51.938;4.624;2023-06-14T10:23:41;2.50;;;1.48;;
41631;SDS011;37452;51.938;4.624;2023-06-14T10:26:13;3.22;;;1.35;;
41631;SDS011;37452;51.938;4.624;2023-06-14T10:28:44;2.83;;;1.33;;
41631;SDS011;37452;51.938;4.624;2023-06-14T10:31:21;4.57;;;1.65;;
41631;SDS011;37452;51.938;4.624;2023-06-14T10:38:46;3.58;;;1.23;;
41631;SDS011;37452;51.938;4.624;2023-06-14T10:41:41;5.72;;;1.33;;
41631;SDS011;37452;51.938;4.624;2023-06-14T10:46:38;3.38;;;1.50;;
41631;SDS011;37452;51.938;4.624;2023-06-14T10:49:04;3.70;;;1.60;;
41631;SDS011;37452;51.938;4.624;2023-06-14T10:51:37;1.80;;;0.90;;
41631;SDS011;37452;51.938;4.624;2023-06-14T10:54:11;2.05;;;1.10;;
41631;SDS011;37452;51.938;4.624;2023-06-14T10:56:38;2.22;;;1.30;;
41631;SDS011;37452;51.938;4.624;2023-06-14T10:59:12;4.20;;;1.45;;
41631;SDS011;37452;51.938;4.624;2023-06-14T11:01:38;5.43;;;1.35;;
41631;SDS011;37452;51.938;4.624;2023-06-14T11:04:12;2.95;;;1.05;;
41631;SDS011;37452;51.938;4.624;2023-06-14T11:06:48;3.15;;;0.90;;
41631;SDS011;37452;51.938;4.624;2023-06-14T11:12:19;5.65;;;1.27;;
41631;SDS011;37452;51.938;4.624;2023-06-14T11:14:46;6.43;;;1.50;;
41631;SDS011;37452;51.938;4.624;2023-06-14T11:17:12;3.10;;;1.20;;
41631;SDS011;37452;51.938;4.624;2023-06-14T11:19:38;3.15;;;1.10;;
41631;SDS011;37452;51.938;4.624;2023-06-14T11:22:03;3.78;;;1.20;;
41631;SDS011;37452;51.938;4.624;2023-06-14T11:24:29;2.13;;;1.20;;
41631;SDS011;37452;51.938;4.624;2023-06-14T11:26:55;5.28;;;1.10;;
41631;SDS011;37452;51.938;4.624;2023-06-14T11:29:21;3.58;;;1.08;;
41631;SDS011;37452;51.938;4.624;2023-06-14T11:31:48;2.50;;;1.13;;
41631;SDS011;37452;51.938;4.624;2023-06-14T11:34:13;5.10;;;1.20;;
41631;SDS011;37452;51.938;4.624;2023-06-14T11:36:38;3.30;;;1.20;;
41631;SDS011;37452;51.938;4.624;2023-06-14T11:39:05;2.38;;;0.93;;
41631;SDS011;37452;51.938;4.624;2023-06-14T11:41:44;3.40;;;1.20;;
41631;SDS011;37452;51.938;4.624;2023-06-14T11:44:10;3.83;;;1.48;;
41631;SDS011;37452;51.938;4.624;2023-06-14T11:46:36;4.82;;;1.30;;
41631;SDS011;37452;51.938;4.624;2023-06-14T11:49:02;3.83;;;1.10;;
41631;SDS011;37452;51.938;4.624;2023-06-14T11:51:32;3.65;;;1.30;;
41631;SDS011;37452;51.938;4.624;2023-06-14T11:54:00;2.95;;;1.10;;
41631;SDS011;37452;51.938;4.624;2023-06-14T11:56:27;2.00;;;1.02;;
41631;SDS011;37452;51.938;4.624;2023-06-14T11:58:53;1.98;;;0.90;;
41631;SDS011;37452;51.938;4.624;2023-06-14T12:01:21;3.85;;;1.38;;
41631;SDS011;37452;51.938;4.624;2023-06-14T12:03:50;2.35;;;1.17;;
41631;SDS011;37452;51.938;4.624;2023-06-14T12:06:25;5.07;;;1.20;;
41631;SDS011;37452;51.938;4.624;2023-06-14T12:08:55;1.75;;;0.90;;
41631;SDS011;37452;51.938;4.624;2023-06-14T12:11:21;3.67;;;1.05;;
41631;SDS011;37452;51.938;4.624;2023-06-14T12:13:46;5.53;;;1.52;;
41631;SDS011;37452;51.938;4.624;2023-06-14T12:16:14;1.77;;;0.93;;
41631;SDS011;37452;51.938;4.624;2023-06-14T12:18:39;2.85;;;1.15;;
41631;SDS011;37452;51.938;4.624;2023-06-14T12:21:06;2.28;;;1.40;;
41631;SDS011;37452;51.938;4.624;2023-06-14T12:26:08;2.10;;;1.10;;
41631;SDS011;37452;51.938;4.624;2023-06-14T12:28:33;2.60;;;1.10;;
41631;SDS011;37452;51.938;4.624;2023-06-14T12:30:58;2.20;;;1.08;;
41631;SDS011;37452;51.938;4.624;2023-06-14T12:33:24;3.33;;;1.02;;
41631;SDS011;37452;51.938;4.624;2023-06-14T12:35:50;3.38;;;1.27;;
41631;SDS011;37452;51.938;4.624;2023-06-14T12:38:15;1.80;;;0.80;;
41631;SDS011;37452;51.938;4.624;2023-06-14T12:40:41;2.95;;;1.00;;
41631;SDS011;37452;51.938;4.624;2023-06-14T12:43:07;6.55;;;1.30;;
41631;SDS011;37452;51.938;4.624;2023-06-14T12:45:32;2.97;;;1.20;;
41631;SDS011;37452;51.938;4.624;2023-06-14T12:47:58;2.17;;;1.20;;
41631;SDS011;37452;51.938;4.624;2023-06-14T12:50:23;1.80;;;1.00;;
41631;SDS011;37452;51.938;4.624;2023-06-14T12:52:48;6.75;;;1.10;;
41631;SDS011;37452;51.938;4.624;2023-06-14T12:55:14;2.97;;;0.80;;
41631;SDS011;37452;51.938;4.624;2023-06-14T12:57:39;4.50;;;1.33;;
41631;SDS011;37452;51.938;4.624;2023-06-14T13:00:05;2.05;;;1.20;;
41631;SDS011;37452;51.938;4.624;2023-06-14T13:02:32;4.15;;;1.20;;
41631;SDS011;37452;51.938;4.624;2023-06-14T13:04:58;3.95;;;1.10;;
41631;SDS011;37452;51.938;4.624;2023-06-14T13:07:24;3.60;;;1.10;;
41631;SDS011;37452;51.938;4.624;2023-06-14T13:09:49;4.72;;;1.30;;
41631;SDS011;37452;51.938;4.624;2023-06-14T13:12:14;2.13;;;1.10;;
41631;SDS011;37452;51.938;4.624;2023-06-14T13:14:40;2.42;;;0.90;;
41631;SDS011;37452;51.938;4.624;2023-06-14T13:17:07;2.80;;;1.23;;
41631;SDS011;37452;51.938;4.624;2023-06-14T13:19:33;3.22;;;1.20;;
41631;SDS011;37452;51.938;4.624;2023-06-14T13:21:59;1.83;;;1.00;;
41631;SDS011;37452;51.938;4.624;2023-06-14T13:24:24;3.55;;;1.15;;
41631;SDS011;37452;51.938;4.624;2023-06-14T13:26:50;2.97;;;1.40;;
41631;SDS011;37452;51.938;4.624;2023-06-14T13:29:15;3.13;;;1.05;;
41631;SDS011;37452;51.938;4.624;2023-06-14T13:31:41;2.15;;;1.25;;
41631;SDS011;37452;51.938;4.624;2023-06-14T13:34:06;3.15;;;1.38;;
41631;SDS011;37452;51.938;4.624;2023-06-14T13:36:31;4.05;;;1.25;;
41631;SDS011;37452;51.938;4.624;2023-06-14T13:38:57;1.80;;;0.85;;
41631;SDS011;37452;51.938;4.624;2023-06-14T13:41:23;3.67;;;0.90;;
41631;SDS011;37452;51.938;4.624;2023-06-14T13:43:56;3.75;;;1.40;;
41631;SDS011;37452;51.938;4.624;2023-06-14T13:46:21;2.10;;;1.17;;
41631;SDS011;37452;51.938;4.624;2023-06-14T13:48:47;2.13;;;1.33;;
41631;SDS011;37452;51.938;4.624;2023-06-14T13:51:12;3.63;;;1.20;;
41631;SDS011;37452;51.938;4.624;2023-06-14T13:53:38;3.35;;;1.10;;
41631;SDS011;37452;51.938;4.624;2023-06-14T13:56:03;2.88;;;1.15;;
41631;SDS011;37452;51.938;4.624;2023-06-14T13:58:29;4.22;;;1.40;;
41631;SDS011;37452;51.938;4.624;2023-06-14T14:00:54;2.35;;;1.10;;
41631;SDS011;37452;51.938;4.624;2023-06-14T14:03:19;3.00;;;1.20;;
41631;SDS011;37452;51.938;4.624;2023-06-14T14:05:45;2.40;;;1.35;;
41631;SDS011;37452;51.938;4.624;2023-06-14T14:08:10;1.65;;;1.00;;
41631;SDS011;37452;51.938;4.624;2023-06-14T14:10:36;4.70;;;1.25;;
41631;SDS011;37452;51.938;4.624;2023-06-14T14:13:01;1.73;;;1.10;;
41631;SDS011;37452;51.938;4.624;2023-06-14T14:15:26;3.28;;;1.33;;
41631;SDS011;37452;51.938;4.624;2023-06-14T14:17:52;2.30;;;1.20;;
41631;SDS011;37452;51.938;4.624;2023-06-14T14:20:19;2.08;;;1.35;;
41631;SDS011;37452;51.938;4.624;2023-06-14T14:22:44;6.70;;;1.35;;
41631;SDS011;37452;51.938;4.624;2023-06-14T14:25:10;2.50;;;1.05;;
41631;SDS011;37452;51.938;4.624;2023-06-14T14:27:38;2.92;;;1.23;;
41631;SDS011;37452;51.938;4.624;2023-06-14T14:30:04;2.85;;;1.17;;
41631;SDS011;37452;51.938;4.624;2023-06-14T14:32:30;4.07;;;1.42;;
41631;SDS011;37452;51.938;4.624;2023-06-14T14:34:56;4.07;;;1.33;;
41631;SDS011;37452;51.938;4.624;2023-06-14T14:37:21;5.18;;;1.30;;
41631;SDS011;37452;51.938;4.624;2023-06-14T14:39:46;3.60;;;1.17;;
41631;SDS011;37452;51.938;4.624;2023-06-14T14:42:12;2.20;;;1.08;;
41631;SDS011;37452;51.938;4.624;2023-06-14T14:44:37;2.53;;;1.20;;
41631;SDS011;37452;51.938;4.624;2023-06-14T14:47:03;1.95;;;0.98;;
41631;SDS011;37452;51.938;4.624;2023-06-14T14:49:30;3.35;;;0.90;;
41631;SDS011;37452;51.938;4.624;2023-06-14T14:51:56;1.85;;;0.90;;
41631;SDS011;37452;51.938;4.624;2023-06-14T14:54:22;2.08;;;0.90;;
41631;SDS011;37452;51.938;4.624;2023-06-14T14:56:48;1.42;;;0.85;;
41631;SDS011;37452;51.938;4.624;2023-06-14T14:59:13;3.53;;;1.17;;
41631;SDS011;37452;51.938;4.624;2023-06-14T15:01:38;3.60;;;1.13;;
41631;SDS011;37452;51.938;4.624;2023-06-14T15:04:04;4.07;;;1.08;;